Time;durP1;ratioP1;P1;durP2;ratioP2;P2;SDS_P1;SDS_P2;PMS_P1;PMS_P2;Temp;Humidity;BMP_temperature;BMP_pressure;BME280_temperature;BME280_humidity;BME280_pressure;Samples;Min_cycle;Max_cycle;Signal;HPM_P1;HPM_P2
2022/01/23 00:00:02;;;;;;;1.67;1.23;;;;;;;;;;5060903;28;20029;-45
2022/01/23 00:02:29;;;;;;;1.80;1.10;;;;;;;;;;5057281;28;20470;-46
2022/01/23 00:04:55;;;;;;;1.58;1.15;;;;;;;;;;5061525;28;20033;-44
2022/01/23 00:07:22;;;;;;;1.42;1.10;;;;;;;;;;5058750;28;20048;-45
2022/01/23 00:09:47;;;;;;;2.30;1.23;;;;;;;;;;5060201;28;20025;-47
2022/01/23 00:12:18;;;;;;;1.38;1.13;;;;;;;;;;5058471;28;20044;-45
2022/01/23 00:17:35;;;;;;;2.33;0.82;;;;;;;;;;5060258;28;20079;-45
2022/01/23 00:20:06;;;;;;;1.63;1.20;;;;;;;;;;5059673;28;20078;-44
2022/01/23 00:22:35;;;;;;;1.40;1.10;;;;;;;;;;5053902;28;20493;-45
2022/01/23 00:30:32;;;;;;;2.33;1.33;;;;;;;;;;5070607;28;20047;-46
2022/01/23 00:33:03;;;;;;;2.78;1.10;;;;;;;;;;5058867;28;20056;-45
2022/01/23 00:35:30;;;;;;;1.77;1.10;;;;;;;;;;5050682;28;20206;-50
2022/01/23 00:37:56;;;;;;;1.85;1.13;;;;;;;;;;5061399;28;20072;-45
2022/01/23 00:40:23;;;;;;;2.42;1.60;;;;;;;;;;5070600;28;20036;-46
2022/01/23 00:42:49;;;;;;;2.00;1.15;;;;;;;;;;5042636;28;20450;-45
2022/01/23 00:45:28;;;;;;;1.70;1.23;;;;;;;;;;5051652;28;20128;-45
2022/01/23 00:47:59;;;;;;;1.33;1.10;;;;;;;;;;5051480;28;20025;-44
2022/01/23 00:50:25;;;;;;;1.60;1.13;;;;;;;;;;5050644;28;20057;-45
2022/01/23 00:52:51;;;;;;;2.72;1.38;;;;;;;;;;5058439;28;20096;-44
2022/01/23 00:55:17;;;;;;;1.85;1.02;;;;;;;;;;5070521;28;20058;-45
2022/01/23 00:57:43;;;;;;;1.63;1.20;;;;;;;;;;5071520;28;20107;-45
2022/01/23 01:00:10;;;;;;;2.20;1.10;;;;;;;;;;5070717;28;20130;-55
2022/01/23 01:02:36;;;;;;;2.97;1.55;;;;;;;;;;5067021;28;20025;-45
2022/01/23 01:05:03;;;;;;;1.35;1.25;;;;;;;;;;5054784;28;20074;-45
2022/01/23 01:07:29;;;;;;;1.70;0.90;;;;;;;;;;5053348;28;20927;-44
2022/01/23 01:10:00;;;;;;;1.35;1.13;;;;;;;;;;5036616;28;20029;-44
2022/01/23 01:12:38;;;;;;;1.92;1.40;;;;;;;;;;5058104;28;20032;-44
2022/01/23 01:31:45;;;;;;;1.52;0.90;;;;;;;;;;5072775;28;20031;-45
2022/01/23 01:34:21;;;;;;;2.05;1.13;;;;;;;;;;5073545;28;20021;-53
2022/01/23 01:36:52;;;;;;;1.80;1.20;;;;;;;;;;5074125;28;20067;-44
2022/01/23 01:39:20;;;;;;;1.10;0.82;;;;;;;;;;5060108;28;20056;-46
2022/01/23 01:41:46;;;;;;;1.40;0.90;;;;;;;;;;5059874;28;20056;-44
2022/01/23 01:44:13;;;;;;;1.55;1.40;;;;;;;;;;5073169;28;20029;-54
2022/01/23 01:46:39;;;;;;;1.52;1.05;;;;;;;;;;5073715;28;20477;-45
2022/01/23 01:49:05;;;;;;;1.40;0.90;;;;;;;;;;5055644;28;20037;-46
2022/01/23 01:51:33;;;;;;;1.42;0.90;;;;;;;;;;5056493;28;20032;-44
2022/01/23 01:54:06;;;;;;;2.53;1.30;;;;;;;;;;5073743;28;20046;-44
2022/01/23 01:56:40;;;;;;;1.10;0.90;;;;;;;;;;5071166;28;20032;-45
2022/01/23 02:09:43;;;;;;;1.88;1.15;;;;;;;;;;5052941;28;20414;-46
2022/01/23 02:22:46;;;;;;;1.65;1.27;;;;;;;;;;5059186;28;20063;-45
2022/01/23 02:25:42;;;;;;;1.05;0.95;;;;;;;;;;5061160;28;20435;-47
2022/01/23 02:55:23;;;;;;;1.73;1.20;;;;;;;;;;5065044;28;20048;-45
2022/01/23 02:58:01;;;;;;;1.55;1.23;;;;;;;;;;5072428;28;20441;-45
2022/01/23 03:00:34;;;;;;;1.40;1.27;;;;;;;;;;5057567;28;20052;-44
2022/01/23 03:03:08;;;;;;;1.85;1.20;;;;;;;;;;5061976;28;20024;-52
2022/01/23 03:05:37;;;;;;;2.47;1.27;;;;;;;;;;5055326;28;20024;-44
2022/01/23 03:08:19;;;;;;;2.13;1.27;;;;;;;;;;5052378;28;20029;-46
2022/01/23 03:10:58;;;;;;;1.23;1.05;;;;;;;;;;5051854;28;20029;-44
2022/01/23 03:24:22;;;;;;;1.65;1.20;;;;;;;;;;5054188;28;20035;-45
2022/01/23 03:27:05;;;;;;;1.50;1.00;;;;;;;;;;5051846;28;20029;-44
2022/01/23 03:30:17;;;;;;;1.80;1.08;;;;;;;;;;5058888;28;20071;-44
2022/01/23 03:32:27;;;;;;;1.80;1.20;;;;;;;;;;5065365;28;20025;-45
2022/01/23 03:34:53;;;;;;;1.30;1.02;;;;;;;;;;5061828;28;20119;-45
2022/01/23 03:37:20;;;;;;;1.52;1.23;;;;;;;;;;5060422;28;20448;-44
2022/01/23 03:39:47;;;;;;;2.03;1.33;;;;;;;;;;5071626;28;20074;-44
2022/01/23 03:42:13;;;;;;;1.35;1.10;;;;;;;;;;5071799;28;20028;-55
2022/01/23 03:44:46;;;;;;;1.35;0.90;;;;;;;;;;5063536;28;20052;-45
2022/01/23 03:47:20;;;;;;;1.30;1.05;;;;;;;;;;5051787;28;20021;-55
2022/01/23 03:49:48;;;;;;;2.08;1.30;;;;;;;;;;5034276;28;20037;-45
2022/01/23 03:52:15;;;;;;;2.00;1.30;;;;;;;;;;5051478;28;20025;-55
2022/01/23 03:54:41;;;;;;;1.75;1.20;;;;;;;;;;5059351;28;20029;-44
2022/01/23 03:57:08;;;;;;;1.65;1.10;;;;;;;;;;5067018;28;20116;-44
2022/01/23 03:59:34;;;;;;;2.10;1.50;;;;;;;;;;5050996;28;20068;-44
2022/01/23 04:02:01;;;;;;;2.05;1.30;;;;;;;;;;5051676;28;20079;-44
2022/01/23 04:06:53;;;;;;;1.33;1.08;;;;;;;;;;5051382;28;20459;-45
2022/01/23 04:09:19;;;;;;;2.03;1.10;;;;;;;;;;5050479;28;20039;-44
2022/01/23 04:11:46;;;;;;;1.65;1.27;;;;;;;;;;5051481;28;20104;-45
2022/01/23 04:14:15;;;;;;;2.75;1.20;;;;;;;;;;5067648;28;20103;-44
2022/01/23 04:17:07;;;;;;;1.88;1.15;;;;;;;;;;5051098;28;20021;-44
2022/01/23 04:33:29;;;;;;;1.88;1.30;;;;;;;;;;5070971;28;20027;-45
2022/01/23 05:01:00;;;;;;;1.70;1.40;;;;;;;;;;5054854;28;20562;-45
2022/01/23 05:06:20;;;;;;;1.67;1.30;;;;;;;;;;5074069;28;20086;-44
2022/01/23 05:08:46;;;;;;;2.80;1.40;;;;;;;;;;5074378;28;20074;-46
2022/01/23 05:11:13;;;;;;;2.53;1.73;;;;;;;;;;5074680;28;20107;-44
2022/01/23 05:13:39;;;;;;;2.10;1.48;;;;;;;;;;5073650;28;20082;-45
2022/01/23 05:16:05;;;;;;;1.38;1.20;;;;;;;;;;5061166;28;20103;-44
2022/01/23 05:18:35;;;;;;;1.73;1.10;;;;;;;;;;5072411;28;20029;-46
2022/01/23 05:23:45;;;;;;;1.70;1.25;;;;;;;;;;5054593;28;20032;-45
2022/01/23 05:26:12;;;;;;;1.70;1.33;;;;;;;;;;5073036;28;20024;-46
2022/01/23 05:28:38;;;;;;;2.63;1.50;;;;;;;;;;5071384;28;20644;-45
2022/01/23 05:31:04;;;;;;;1.75;1.27;;;;;;;;;;5054435;28;20016;-45
2022/01/23 05:33:30;;;;;;;1.25;1.10;;;;;;;;;;5053377;28;20065;-44
2022/01/23 05:35:56;;;;;;;2.80;1.50;;;;;;;;;;5072856;28;20035;-46
2022/01/23 05:38:22;;;;;;;2.17;1.23;;;;;;;;;;5072756;28;20045;-45
2022/01/23 05:40:55;;;;;;;1.23;1.00;;;;;;;;;;5073893;28;20090;-45
2022/01/23 05:43:21;;;;;;;2.00;1.35;;;;;;;;;;5073374;28;20502;-45
2022/01/23 05:45:47;;;;;;;1.75;1.25;;;;;;;;;;5056080;28;20048;-45
2022/01/23 05:48:13;;;;;;;2.40;1.58;;;;;;;;;;5067980;28;20371;-45
2022/01/23 05:50:39;;;;;;;2.05;1.30;;;;;;;;;;5073239;28;20025;-44
2022/01/23 05:53:05;;;;;;;2.92;1.48;;;;;;;;;;5069566;28;20150;-45
2022/01/23 05:55:31;;;;;;;1.65;1.27;;;;;;;;;;5054921;28;20051;-45
2022/01/23 05:57:57;;;;;;;3.50;1.67;;;;;;;;;;5035352;28;20147;-44
2022/01/23 06:00:23;;;;;;;1.73;1.20;;;;;;;;;;5054884;28;20032;-45
2022/01/23 06:02:49;;;;;;;2.50;1.83;;;;;;;;;;5073787;28;20031;-44
2022/01/23 06:05:15;;;;;;;1.75;1.17;;;;;;;;;;5057997;28;20370;-45
2022/01/23 06:07:42;;;;;;;1.85;1.42;;;;;;;;;;5052949;28;20021;-44
2022/01/23 06:10:18;;;;;;;2.08;1.83;;;;;;;;;;5035547;28;20028;-50
2022/01/23 06:12:44;;;;;;;1.70;1.23;;;;;;;;;;5053446;28;20033;-45
2022/01/23 06:15:10;;;;;;;2.90;1.52;;;;;;;;;;5067903;28;20031;-44
2022/01/23 06:17:37;;;;;;;2.28;1.80;;;;;;;;;;5072335;28;20139;-44
2022/01/23 06:20:03;;;;;;;1.35;1.05;;;;;;;;;;5073428;28;20036;-44
2022/01/23 06:22:29;;;;;;;1.77;1.30;;;;;;;;;;5071688;28;20039;-44
2022/01/23 06:24:55;;;;;;;2.20;1.33;;;;;;;;;;5066076;28;20024;-45
2022/01/23 06:27:21;;;;;;;1.88;1.20;;;;;;;;;;5072230;28;20366;-53
2022/01/23 06:29:47;;;;;;;2.05;1.50;;;;;;;;;;5073247;28;20028;-49
2022/01/23 06:32:13;;;;;;;1.35;1.15;;;;;;;;;;5062139;28;20055;-47
2022/01/23 06:34:40;;;;;;;1.48;1.33;;;;;;;;;;5042667;28;20449;-49
2022/01/23 06:37:06;;;;;;;1.65;1.15;;;;;;;;;;5044731;28;20025;-46
2022/01/23 06:39:32;;;;;;;2.30;1.42;;;;;;;;;;5061877;28;20048;-46
2022/01/23 06:41:58;;;;;;;3.10;1.55;;;;;;;;;;5061289;28;20025;-47
2022/01/23 06:44:26;;;;;;;2.30;1.52;;;;;;;;;;5041568;28;20049;-45
2022/01/23 06:46:52;;;;;;;3.15;1.20;;;;;;;;;;5058043;28;20043;-47
2022/01/23 06:49:18;;;;;;;1.80;1.10;;;;;;;;;;5059691;28;20122;-58
2022/01/23 06:51:44;;;;;;;2.95;1.70;;;;;;;;;;5059200;28;20074;-47
2022/01/23 06:54:10;;;;;;;2.08;1.75;;;;;;;;;;5061333;28;20033;-50
2022/01/23 06:56:36;;;;;;;2.00;1.30;;;;;;;;;;5058563;28;20466;-51
2022/01/23 06:59:02;;;;;;;2.30;1.30;;;;;;;;;;5059969;28;20509;-46
2022/01/23 07:01:28;;;;;;;2.22;1.52;;;;;;;;;;5066019;28;20021;-47
2022/01/23 07:03:54;;;;;;;2.03;1.27;;;;;;;;;;5071481;28;20025;-49
2022/01/23 07:06:20;;;;;;;2.30;1.52;;;;;;;;;;5071387;28;20104;-62
2022/01/23 07:08:47;;;;;;;2.33;1.40;;;;;;;;;;5068501;28;20025;-49
2022/01/23 07:11:13;;;;;;;2.83;1.30;;;;;;;;;;5034600;28;20360;-43
2022/01/23 07:13:39;;;;;;;5.93;1.80;;;;;;;;;;5060159;28;20043;-43
2022/01/23 07:16:06;;;;;;;2.10;1.35;;;;;;;;;;5068670;28;20028;-43
2022/01/23 07:18:32;;;;;;;1.77;1.23;;;;;;;;;;5060093;28;20478;-43
2022/01/23 07:20:58;;;;;;;1.75;1.50;;;;;;;;;;5062672;28;20021;-44
2022/01/23 07:23:24;;;;;;;3.60;1.65;;;;;;;;;;5060523;28;20016;-45
2022/01/23 07:25:51;;;;;;;3.05;1.30;;;;;;;;;;5062818;28;20017;-43
2022/01/23 07:28:21;;;;;;;2.78;1.30;;;;;;;;;;5062759;28;20087;-43
2022/01/23 07:30:58;;;;;;;1.95;1.30;;;;;;;;;;5061103;28;20120;-45
2022/01/23 07:33:24;;;;;;;1.55;1.25;;;;;;;;;;5059703;28;20100;-45
2022/01/23 07:35:50;;;;;;;3.20;1.45;;;;;;;;;;5059989;28;20108;-44
2022/01/23 07:38:17;;;;;;;3.08;1.48;;;;;;;;;;5062668;28;20045;-46
2022/01/23 07:40:45;;;;;;;1.30;1.20;;;;;;;;;;5036789;28;20094;-47
2022/01/23 07:43:11;;;;;;;3.63;1.58;;;;;;;;;;5054565;28;20021;-50
2022/01/23 07:45:37;;;;;;;3.20;1.60;;;;;;;;;;5047011;28;20029;-46
2022/01/23 07:48:04;;;;;;;4.55;1.30;;;;;;;;;;5051656;28;20508;-46
2022/01/23 07:50:30;;;;;;;3.53;1.50;;;;;;;;;;5070540;28;20021;-47
2022/01/23 07:52:56;;;;;;;3.60;1.30;;;;;;;;;;5059100;28;20020;-55
2022/01/23 07:55:22;;;;;;;1.63;1.20;;;;;;;;;;5070608;28;20035;-46
2022/01/23 07:57:48;;;;;;;3.13;1.27;;;;;;;;;;5072731;28;20460;-47
2022/01/23 08:00:14;;;;;;;2.83;1.15;;;;;;;;;;5070765;28;20025;-47
2022/01/23 08:02:41;;;;;;;3.70;1.17;;;;;;;;;;5069390;28;20036;-46
2022/01/23 08:05:09;;;;;;;2.00;1.25;;;;;;;;;;5053740;28;20024;-47
2022/01/23 08:07:36;;;;;;;3.78;1.20;;;;;;;;;;5070339;28;20487;-48
2022/01/23 08:10:05;;;;;;;3.63;1.58;;;;;;;;;;5070389;28;20044;-46
2022/01/23 08:12:31;;;;;;;1.73;1.00;;;;;;;;;;5060151;28;20029;-55
2022/01/23 08:14:58;;;;;;;2.30;1.30;;;;;;;;;;5057822;28;20039;-50
2022/01/23 08:17:24;;;;;;;2.13;1.50;;;;;;;;;;5062993;28;20028;-46
2022/01/23 08:19:52;;;;;;;1.88;1.25;;;;;;;;;;5065160;28;20351;-44
2022/01/23 08:22:18;;;;;;;7.53;1.77;;;;;;;;;;5064129;28;20029;-52
2022/01/23 08:24:44;;;;;;;2.45;1.65;;;;;;;;;;5065480;28;20025;-45
2022/01/23 08:27:10;;;;;;;8.30;1.80;;;;;;;;;;5065035;28;20036;-44
2022/01/23 08:29:36;;;;;;;3.58;1.45;;;;;;;;;;5064823;28;20056;-46
2022/01/23 08:32:02;;;;;;;3.03;2.13;;;;;;;;;;5062216;28;20051;-44
2022/01/23 08:34:28;;;;;;;5.03;1.73;;;;;;;;;;5062244;28;20029;-45
2022/01/23 08:36:55;;;;;;;3.08;1.67;;;;;;;;;;5064394;28;20033;-46
2022/01/23 08:39:24;;;;;;;2.65;1.48;;;;;;;;;;5063339;28;20141;-48
2022/01/23 08:41:50;;;;;;;3.50;1.42;;;;;;;;;;5064609;28;20028;-45
2022/01/23 08:44:24;;;;;;;2.33;1.90;;;;;;;;;;5063050;28;20057;-48
2022/01/23 08:46:50;;;;;;;4.35;2.08;;;;;;;;;;5063360;28;20032;-45
2022/01/23 08:49:17;;;;;;;8.32;1.75;;;;;;;;;;5063872;28;20527;-47
2022/01/23 08:51:44;;;;;;;4.07;2.00;;;;;;;;;;5044575;28;20021;-49
2022/01/23 08:54:10;;;;;;;3.38;1.52;;;;;;;;;;5066577;28;20021;-51
2022/01/23 08:56:36;;;;;;;3.00;1.77;;;;;;;;;;5062509;28;20021;-45
2022/01/23 08:59:03;;;;;;;5.90;1.73;;;;;;;;;;5064602;28;20021;-47
2022/01/23 09:01:29;;;;;;;3.50;1.50;;;;;;;;;;5061871;28;20115;-46
2022/01/23 09:03:55;;;;;;;4.03;1.55;;;;;;;;;;5062578;28;20017;-44
2022/01/23 09:06:22;;;;;;;2.97;2.13;;;;;;;;;;5064449;28;20385;-46
2022/01/23 09:08:48;;;;;;;2.05;1.65;;;;;;;;;;5062899;28;20069;-46
2022/01/23 09:11:26;;;;;;;1.92;1.73;;;;;;;;;;5063571;28;20064;-47
2022/01/23 09:14:15;;;;;;;1.90;1.30;;;;;;;;;;5063314;28;20017;-45
2022/01/23 09:16:40;;;;;;;2.15;1.50;;;;;;;;;;5055531;28;20036;-45
2022/01/23 09:19:06;;;;;;;3.72;1.95;;;;;;;;;;5062840;28;20033;-48
2022/01/23 09:21:33;;;;;;;3.80;1.67;;;;;;;;;;5064371;28;20361;-50
2022/01/23 09:23:59;;;;;;;2.85;1.58;;;;;;;;;;5060818;28;20032;-50
2022/01/23 09:26:25;;;;;;;2.28;1.60;;;;;;;;;;5063499;28;20031;-52
2022/01/23 09:28:57;;;;;;;5.40;2.20;;;;;;;;;;5059634;28;20385;-50
2022/01/23 09:31:30;;;;;;;3.78;1.60;;;;;;;;;;5062150;28;20485;-50
2022/01/23 09:33:56;;;;;;;3.75;1.50;;;;;;;;;;5061477;28;20048;-50
2022/01/23 09:36:22;;;;;;;3.28;1.63;;;;;;;;;;5063409;28;20029;-57
2022/01/23 09:38:49;;;;;;;2.15;1.23;;;;;;;;;;5061767;28;20426;-52
2022/01/23 09:41:17;;;;;;;2.10;1.50;;;;;;;;;;5062333;28;20025;-50
2022/01/23 09:43:44;;;;;;;2.50;1.60;;;;;;;;;;5061256;28;20013;-52
2022/01/23 09:46:10;;;;;;;2.95;1.60;;;;;;;;;;5062319;28;20518;-49
2022/01/23 09:48:36;;;;;;;2.42;1.55;;;;;;;;;;5060617;28;20091;-49
2022/01/23 09:51:03;;;;;;;6.82;1.80;;;;;;;;;;5062135;28;20021;-46
2022/01/23 09:53:30;;;;;;;3.35;1.60;;;;;;;;;;5061125;28;20108;-45
2022/01/23 09:56:04;;;;;;;2.95;1.85;;;;;;;;;;5063254;28;20028;-45
2022/01/23 09:58:30;;;;;;;3.45;1.60;;;;;;;;;;5062298;28;20453;-46
2022/01/23 10:00:58;;;;;;;6.55;1.60;;;;;;;;;;5063431;28;20024;-47
2022/01/23 10:03:24;;;;;;;4.32;1.52;;;;;;;;;;5061341;28;20038;-58
2022/01/23 10:05:55;;;;;;;4.47;1.77;;;;;;;;;;5062852;28;20065;-53
2022/01/23 10:08:21;;;;;;;3.97;1.77;;;;;;;;;;5061446;28;20377;-56
2022/01/23 10:10:51;;;;;;;3.75;1.85;;;;;;;;;;5064148;28;20024;-50
2022/01/23 10:13:20;;;;;;;3.53;1.70;;;;;;;;;;5073043;28;20025;-57
2022/01/23 10:15:46;;;;;;;2.53;1.42;;;;;;;;;;5071068;28;20043;-54
2022/01/23 10:18:12;;;;;;;2.75;1.80;;;;;;;;;;5053758;28;20067;-55
2022/01/23 10:20:38;;;;;;;2.88;1.70;;;;;;;;;;5054053;28;20067;-51
2022/01/23 10:23:04;;;;;;;2.90;1.70;;;;;;;;;;5055401;28;20040;-50
2022/01/23 10:25:31;;;;;;;3.45;1.42;;;;;;;;;;5065690;28;20028;-52
2022/01/23 10:28:04;;;;;;;2.63;1.40;;;;;;;;;;5072588;28;20060;-54
2022/01/23 10:30:34;;;;;;;3.10;1.27;;;;;;;;;;5072983;28;20035;-54
2022/01/23 10:33:04;;;;;;;1.48;1.15;;;;;;;;;;5073265;28;20372;-54
2022/01/23 10:35:30;;;;;;;2.00;1.42;;;;;;;;;;5072099;28;20079;-50
2022/01/23 10:37:56;;;;;;;1.98;1.38;;;;;;;;;;5054320;28;20045;-56
2022/01/23 10:40:24;;;;;;;3.45;1.13;;;;;;;;;;5053511;28;20040;-53
2022/01/23 10:48:25;;;;;;;2.60;1.80;;;;;;;;;;5052006;28;20525;-53
2022/01/23 10:50:53;;;;;;;2.67;1.60;;;;;;;;;;5051999;28;20025;-52
2022/01/23 10:53:19;;;;;;;1.25;1.08;;;;;;;;;;5052706;28;20111;-53
2022/01/23 10:55:46;;;;;;;3.58;1.38;;;;;;;;;;5052371;28;20033;-57
2022/01/23 10:58:18;;;;;;;2.22;1.60;;;;;;;;;;5072496;28;20025;-52
2022/01/23 11:00:44;;;;;;;3.35;1.95;;;;;;;;;;5057701;28;20469;-53
2022/01/23 11:03:16;;;;;;;2.50;1.52;;;;;;;;;;5062666;28;20066;-54
2022/01/23 11:05:44;;;;;;;1.45;1.23;;;;;;;;;;5072004;28;20358;-54
2022/01/23 11:08:23;;;;;;;1.95;1.40;;;;;;;;;;5053061;28;20549;-54
2022/01/23 11:11:15;;;;;;;2.40;1.52;;;;;;;;;;5052212;28;20041;-53
2022/01/23 11:19:24;;;;;;;2.28;1.20;;;;;;;;;;5066429;28;20040;-67
2022/01/23 11:21:52;;;;;;;6.22;2.13;;;;;;;;;;5054637;28;20389;-47
2022/01/23 11:24:19;;;;;;;4.10;2.20;;;;;;;;;;5055893;28;20846;-48
2022/01/23 11:26:45;;;;;;;3.45;2.10;;;;;;;;;;5080303;28;20066;-45
2022/01/23 11:29:12;;;;;;;4.38;2.03;;;;;;;;;;5072268;28;20354;-44
2022/01/23 11:31:39;;;;;;;6.47;1.98;;;;;;;;;;5063896;28;20077;-45
2022/01/23 11:34:06;;;;;;;5.40;2.10;;;;;;;;;;5051754;28;20351;-45
2022/01/23 11:36:33;;;;;;;13.07;2.25;;;;;;;;;;5056318;28;20100;-45
2022/01/23 11:39:08;;;;;;;16.02;7.68;;;;;;;;;;5072059;28;20080;-45
2022/01/23 11:55:45;;;;;;;9.45;6.85;;;;;;;;;;5058212;28;20143;-48
2022/01/23 11:58:31;;;;;;;10.77;7.55;;;;;;;;;;5058295;28;20095;-45
2022/01/23 12:01:16;;;;;;;11.38;7.93;;;;;;;;;;5057817;28;20104;-51
2022/01/23 12:04:02;;;;;;;11.10;7.05;;;;;;;;;;5058687;28;20374;-47
2022/01/23 12:06:28;;;;;;;7.90;5.35;;;;;;;;;;5059084;28;20029;-45
2022/01/23 12:09:03;;;;;;;6.35;4.82;;;;;;;;;;5060907;28;20061;-45
2022/01/23 12:11:42;;;;;;;14.90;5.30;;;;;;;;;;5056421;28;20120;-59
2022/01/23 12:16:53;;;;;;;5.15;3.42;;;;;;;;;;5057510;28;20033;-45
2022/01/23 12:19:24;;;;;;;6.18;3.05;;;;;;;;;;5059960;28;20380;-46
2022/01/23 12:21:52;;;;;;;6.82;3.13;;;;;;;;;;5059450;28;20092;-49
2022/01/23 12:24:19;;;;;;;5.03;2.83;;;;;;;;;;5060393;28;20032;-46
2022/01/23 12:26:45;;;;;;;4.70;2.95;;;;;;;;;;5058096;28;20381;-49
2022/01/23 12:29:12;;;;;;;4.15;2.80;;;;;;;;;;5065474;28;20030;-45
2022/01/23 12:31:39;;;;;;;3.45;2.60;;;;;;;;;;5072422;28;20035;-50
2022/01/23 12:34:05;;;;;;;4.47;2.75;;;;;;;;;;5070855;28;20029;-50
2022/01/23 12:36:33;;;;;;;4.80;2.80;;;;;;;;;;5068718;28;20470;-52
2022/01/23 12:39:17;;;;;;;5.40;2.30;;;;;;;;;;5051166;28;20053;-47
2022/01/23 12:41:48;;;;;;;4.22;2.33;;;;;;;;;;5051342;28;20025;-46
2022/01/23 12:44:24;;;;;;;2.92;2.22;;;;;;;;;;5061718;28;20032;-47
2022/01/23 12:46:54;;;;;;;2.95;2.00;;;;;;;;;;5065991;28;20053;-47
2022/01/23 12:49:25;;;;;;;3.67;2.10;;;;;;;;;;5051692;28;20028;-48
2022/01/23 12:52:13;;;;;;;2.17;1.90;;;;;;;;;;5051163;28;20037;-51
2022/01/23 12:54:51;;;;;;;4.13;2.17;;;;;;;;;;5050610;28;20482;-48
2022/01/23 12:57:24;;;;;;;4.07;2.50;;;;;;;;;;5052474;28;20021;-46
2022/01/23 12:59:57;;;;;;;3.90;2.05;;;;;;;;;;5061761;28;20021;-47
2022/01/23 13:02:27;;;;;;;4.25;2.10;;;;;;;;;;5062715;28;20107;-49
2022/01/23 13:04:55;;;;;;;3.03;1.58;;;;;;;;;;5060712;28;20474;-49
2022/01/23 13:07:49;;;;;;;3.63;1.75;;;;;;;;;;5043701;28;20048;-47
2022/01/23 13:31:42;;;;;;;3.88;2.25;;;;;;;;;;5062192;28;20025;-50
2022/01/23 13:34:41;;;;;;;3.50;1.95;;;;;;;;;;5062725;28;20021;-47
2022/01/23 13:37:09;;;;;;;2.72;1.70;;;;;;;;;;5023521;28;20048;-51
2022/01/23 13:39:44;;;;;;;2.67;1.88;;;;;;;;;;5061480;28;20116;-47
2022/01/23 13:42:30;;;;;;;2.42;1.60;;;;;;;;;;5062399;28;20021;-47
2022/01/23 13:48:37;;;;;;;2.63;1.88;;;;;;;;;;5058713;28;20036;-49
2022/01/23 13:59:32;;;;;;;2.67;1.83;;;;;;;;;;5056832;28;20081;-48
2022/01/23 14:02:17;;;;;;;2.28;1.55;;;;;;;;;;5062639;28;20104;-47
2022/01/23 14:04:54;;;;;;;2.35;1.50;;;;;;;;;;5060324;28;20074;-59
2022/01/23 14:07:25;;;;;;;3.35;1.45;;;;;;;;;;5044728;28;20381;-48
2022/01/23 14:09:51;;;;;;;2.60;1.52;;;;;;;;;;5061466;28;20029;-53
2022/01/23 14:12:18;;;;;;;2.22;1.77;;;;;;;;;;5061321;28;20083;-50
2022/01/23 14:14:54;;;;;;;3.90;1.58;;;;;;;;;;5061798;28;20088;-48
2022/01/23 14:17:21;;;;;;;1.88;1.13;;;;;;;;;;5059714;28;20024;-49
2022/01/23 14:19:57;;;;;;;3.83;1.70;;;;;;;;;;5059908;28;20128;-51
2022/01/23 14:22:27;;;;;;;1.75;1.50;;;;;;;;;;5061636;28;20025;-47
2022/01/23 14:24:53;;;;;;;2.50;1.58;;;;;;;;;;5059404;28;20032;-48
2022/01/23 14:27:21;;;;;;;2.95;1.17;;;;;;;;;;5059502;28;20039;-50
2022/01/23 14:29:52;;;;;;;2.97;1.55;;;;;;;;;;5061714;28;20106;-51
2022/01/23 14:32:33;;;;;;;1.77;1.27;;;;;;;;;;5060640;28;20035;-48
2022/01/23 14:35:04;;;;;;;3.22;1.58;;;;;;;;;;5060268;28;20013;-52
2022/01/23 14:37:30;;;;;;;1.67;1.10;;;;;;;;;;5058740;28;20066;-47
2022/01/23 14:40:10;;;;;;;2.83;1.20;;;;;;;;;;5058248;28;20031;-50
2022/01/23 14:42:36;;;;;;;2.33;1.50;;;;;;;;;;5060407;28;20021;-61
2022/01/23 14:45:06;;;;;;;2.45;1.40;;;;;;;;;;5059298;28;20469;-48
2022/01/23 14:47:36;;;;;;;2.03;0.98;;;;;;;;;;5056834;28;20078;-48
2022/01/23 14:50:06;;;;;;;5.80;1.23;;;;;;;;;;5058215;28;20111;-54
2022/01/23 14:52:32;;;;;;;2.42;1.45;;;;;;;;;;5061001;28;20086;-53
2022/01/23 14:54:58;;;;;;;1.80;1.38;;;;;;;;;;5055946;28;20091;-53
2022/01/23 14:57:24;;;;;;;1.73;1.33;;;;;;;;;;5058360;28;20368;-50
2022/01/23 14:59:50;;;;;;;1.02;0.93;;;;;;;;;;5058643;28;20040;-52
2022/01/23 15:02:16;;;;;;;2.70;1.38;;;;;;;;;;5057334;28;20046;-54
2022/01/23 15:04:44;;;;;;;2.97;1.58;;;;;;;;;;5057743;28;20060;-50
2022/01/23 15:07:14;;;;;;;1.50;1.10;;;;;;;;;;5063688;28;20052;-52
2022/01/23 15:09:40;;;;;;;2.42;1.10;;;;;;;;;;5059361;28;20476;-55
2022/01/23 15:12:07;;;;;;;5.32;1.25;;;;;;;;;;5059161;28;20059;-58
2022/01/23 15:14:33;;;;;;;1.35;1.13;;;;;;;;;;5059152;28;20023;-52
2022/01/23 15:16:59;;;;;;;1.58;0.95;;;;;;;;;;5059630;28;20016;-53
2022/01/23 15:19:25;;;;;;;2.15;1.20;;;;;;;;;;5058381;28;20079;-50
2022/01/23 15:21:51;;;;;;;4.72;1.00;;;;;;;;;;5059172;28;20024;-51
2022/01/23 15:24:17;;;;;;;3.80;1.30;;;;;;;;;;5058060;28;20028;-55
2022/01/23 15:26:43;;;;;;;1.15;1.02;;;;;;;;;;5057146;28;20096;-52
2022/01/23 15:29:09;;;;;;;1.38;0.90;;;;;;;;;;5059095;28;20036;-49
2022/01/23 15:31:37;;;;;;;2.67;1.00;;;;;;;;;;5059394;28;20021;-63
2022/01/23 15:34:04;;;;;;;2.03;1.02;;;;;;;;;;5057834;28;20021;-48
2022/01/23 15:36:30;;;;;;;1.60;0.90;;;;;;;;;;5060881;28;20025;-52
2022/01/23 15:38:56;;;;;;;1.88;1.40;;;;;;;;;;5056694;28;20049;-52
2022/01/23 15:41:22;;;;;;;3.10;1.05;;;;;;;;;;5059496;28;20037;-49
2022/01/23 15:43:49;;;;;;;6.07;1.20;;;;;;;;;;5059151;28;20094;-58
2022/01/23 15:46:15;;;;;;;1.75;0.90;;;;;;;;;;5061307;28;20029;-51
2022/01/23 15:48:41;;;;;;;4.65;1.02;;;;;;;;;;5054744;28;20076;-58
2022/01/23 15:51:07;;;;;;;3.72;1.13;;;;;;;;;;5057307;28;20490;-51
2022/01/23 15:53:33;;;;;;;2.30;1.02;;;;;;;;;;5056644;28;20053;-49
2022/01/23 15:55:59;;;;;;;3.38;1.13;;;;;;;;;;5056587;28;20051;-48
2022/01/23 15:58:28;;;;;;;2.28;1.08;;;;;;;;;;5060148;28;20033;-53
2022/01/23 16:00:54;;;;;;;1.38;0.82;;;;;;;;;;5059598;28;20021;-52
2022/01/23 16:03:20;;;;;;;1.58;0.93;;;;;;;;;;5058035;28;20041;-50
2022/01/23 16:05:46;;;;;;;1.83;0.98;;;;;;;;;;5065416;28;20120;-47
2022/01/23 16:08:13;;;;;;;3.85;1.05;;;;;;;;;;5056199;28;20104;-48
2022/01/23 16:10:39;;;;;;;2.28;1.00;;;;;;;;;;5052307;28;20025;-66
2022/01/23 16:13:05;;;;;;;3.63;0.95;;;;;;;;;;5064045;28;20025;-59
2022/01/23 16:15:31;;;;;;;5.18;1.10;;;;;;;;;;5059429;28;20033;-60
2022/01/23 16:17:57;;;;;;;3.42;1.30;;;;;;;;;;5062561;28;20024;-62
2022/01/23 16:20:23;;;;;;;2.75;1.00;;;;;;;;;;5056720;28;20048;-61
2022/01/23 16:22:49;;;;;;;2.20;0.95;;;;;;;;;;5052866;28;20470;-60
2022/01/23 16:25:18;;;;;;;1.10;0.80;;;;;;;;;;5052671;28;20346;-60
2022/01/23 16:27:44;;;;;;;4.72;1.35;;;;;;;;;;5052729;28;20032;-59
2022/01/23 16:30:10;;;;;;;3.40;1.00;;;;;;;;;;5053488;28;20090;-61
2022/01/23 16:32:37;;;;;;;3.72;1.10;;;;;;;;;;5054706;28;20036;-64
2022/01/23 16:35:04;;;;;;;2.75;1.00;;;;;;;;;;5056536;28;20036;-58
2022/01/23 16:37:29;;;;;;;2.85;0.95;;;;;;;;;;5056918;28;20128;-59
2022/01/23 16:39:55;;;;;;;3.35;1.10;;;;;;;;;;5060456;28;20099;-57
2022/01/23 16:42:21;;;;;;;3.03;0.98;;;;;;;;;;5068589;28;20083;-59
2022/01/23 16:44:48;;;;;;;2.78;1.55;;;;;;;;;;5064072;28;20025;-53
2022/01/23 16:47:14;;;;;;;7.70;1.20;;;;;;;;;;5054790;28;20029;-52
2022/01/23 16:49:41;;;;;;;2.00;1.08;;;;;;;;;;5054134;28;20078;-66
2022/01/23 16:52:11;;;;;;;4.13;1.23;;;;;;;;;;5054332;28;20025;-59
2022/01/23 16:54:37;;;;;;;4.35;1.42;;;;;;;;;;5062664;28;20035;-65
2022/01/23 16:57:03;;;;;;;3.78;1.15;;;;;;;;;;5073614;28;20074;-63
2022/01/23 16:59:30;;;;;;;5.03;3.05;;;;;;;;;;5074272;28;20484;-53
2022/01/23 17:01:56;;;;;;;6.25;1.90;;;;;;;;;;5073942;28;20050;-52
2022/01/23 17:04:23;;;;;;;4.20;1.70;;;;;;;;;;5065952;28;20493;-49
2022/01/23 17:06:49;;;;;;;3.00;2.00;;;;;;;;;;5067250;28;20024;-66
2022/01/23 17:09:15;;;;;;;3.10;1.73;;;;;;;;;;5057709;28;20462;-49
2022/01/23 17:11:42;;;;;;;2.83;1.40;;;;;;;;;;5044680;28;20025;-65
2022/01/23 17:14:08;;;;;;;3.63;1.65;;;;;;;;;;5054779;28;20182;-66
2022/01/23 17:16:34;;;;;;;4.43;1.60;;;;;;;;;;5047733;28;20025;-64
2022/01/23 17:19:00;;;;;;;3.83;1.95;;;;;;;;;;5057053;28;20041;-68
2022/01/23 17:21:26;;;;;;;3.75;1.63;;;;;;;;;;5037480;28;20386;-56
2022/01/23 17:23:52;;;;;;;4.10;1.58;;;;;;;;;;5055152;28;20025;-53
2022/01/23 17:26:18;;;;;;;7.78;1.70;;;;;;;;;;5035466;28;20485;-55
2022/01/23 17:28:45;;;;;;;3.58;1.50;;;;;;;;;;5072271;28;20069;-59
2022/01/23 17:31:11;;;;;;;1.60;1.10;;;;;;;;;;5067668;28;20076;-67
2022/01/23 17:33:37;;;;;;;2.80;1.42;;;;;;;;;;5064465;28;20449;-59
2022/01/23 17:36:04;;;;;;;5.50;2.20;;;;;;;;;;5065365;28;20036;-53
2022/01/23 17:38:32;;;;;;;3.15;1.40;;;;;;;;;;5073983;28;20435;-55
2022/01/23 17:40:58;;;;;;;2.83;1.30;;;;;;;;;;5073925;28;20090;-56
2022/01/23 17:43:25;;;;;;;2.15;1.30;;;;;;;;;;5073265;28;20032;-54
2022/01/23 17:45:53;;;;;;;3.72;1.50;;;;;;;;;;5058109;28;20037;-63
2022/01/23 17:51:05;;;;;;;2.78;1.25;;;;;;;;;;5074733;28;20058;-54
2022/01/23 17:53:33;;;;;;;3.30;1.50;;;;;;;;;;5065449;28;20032;-54
2022/01/23 17:55:59;;;;;;;5.20;1.25;;;;;;;;;;5055901;28;20060;-56
2022/01/23 17:58:25;;;;;;;2.42;1.38;;;;;;;;;;5063901;28;20446;-56
2022/01/23 18:00:51;;;;;;;3.33;1.35;;;;;;;;;;5062802;28;20489;-57
2022/01/23 18:03:17;;;;;;;3.50;1.50;;;;;;;;;;5055560;28;20433;-58
2022/01/23 18:05:47;;;;;;;4.07;1.20;;;;;;;;;;5066959;28;20058;-57